Time;durP1;ratioP1;P1;durP2;ratioP2;P2;SDS_P1;SDS_P2;PMS_P1;PMS_P2;Temp;Humidity;BMP_temperature;BMP_pressure;BME280_temperature;BME280_humidity;BME280_pressure;Samples;Min_cycle;Max_cycle;Signal;HPM_P1;HPM_P2
2023/07/08 00:00:12;;;;;;;78.70;14.67;;;23.80;1.00;;;;;;5100056;28;20458;-81
2023/07/08 00:02:37;;;;;;;78.97;14.50;;;23.70;1.00;;;;;;5081220;28;20171;-81
2023/07/08 00:05:03;;;;;;;75.63;14.20;;;23.60;1.00;;;;;;5099654;28;20890;-81
2023/07/08 00:07:29;;;;;;;73.80;13.77;;;23.60;1.00;;;;;;5099835;28;20200;-81
2023/07/08 00:09:55;;;;;;;75.87;16.10;;;23.60;1.00;;;;;;5099665;28;20887;-81
2023/07/08 00:12:20;;;;;;;75.10;14.50;;;23.60;1.00;;;;;;5081163;28;20254;-81
2023/07/08 00:14:47;;;;;;;76.47;15.10;;;23.60;1.00;;;;;;5099168;28;20646;-81
2023/07/08 00:17:13;;;;;;;74.77;14.10;;;23.50;1.00;;;;;;5099511;28;20620;-81
2023/07/08 00:19:39;;;;;;;78.77;15.00;;;23.40;1.00;;;;;;5099987;28;20451;-81
2023/07/08 00:22:14;;;;;;;75.80;15.23;;;23.40;1.00;;;;;;5099598;28;20249;-80
2023/07/08 00:24:43;;;;;;;75.00;13.17;;;23.40;1.00;;;;;;5099727;28;20391;-81
2023/07/08 00:27:15;;;;;;;76.77;15.20;;;23.40;1.00;;;;;;5081278;28;20814;-81
2023/07/08 00:29:41;;;;;;;78.73;13.60;;;23.30;1.00;;;;;;5099651;28;20389;-82
2023/07/08 00:32:15;;;;;;;74.07;13.63;;;23.30;1.00;;;;;;5081789;28;20962;-82
2023/07/08 00:34:41;;;;;;;75.17;13.00;;;23.30;1.00;;;;;;5099641;28;20196;-82
2023/07/08 00:37:13;;;;;;;75.70;13.40;;;23.20;1.00;;;;;;5082600;28;20906;-82
2023/07/08 00:39:39;;;;;;;76.57;13.90;;;23.20;1.00;;;;;;5100163;28;20394;-82
2023/07/08 00:42:17;;;;;;;75.60;13.47;;;23.20;1.00;;;;;;5100148;28;20412;-82
2023/07/08 00:44:44;;;;;;;78.00;13.60;;;23.20;1.00;;;;;;5099843;28;20794;-82
2023/07/08 00:47:13;;;;;;;75.23;13.83;;;23.10;1.00;;;;;;5100048;28;20436;-81
2023/07/08 00:50:03;;;;;;;77.00;14.40;;;23.10;1.00;;;;;;5082072;28;20406;-82
2023/07/08 00:52:29;;;;;;;75.93;13.20;;;23.10;1.00;;;;;;5081051;28;20421;-81
2023/07/08 00:54:59;;;;;;;77.73;13.70;;;23.00;1.00;;;;;;5099381;28;20502;-84
2023/07/08 00:57:29;;;;;;;76.87;12.63;;;23.10;1.00;;;;;;5099752;28;20496;-82
2023/07/08 01:00:16;;;;;;;77.17;14.30;;;23.00;1.00;;;;;;5098899;28;20407;-82
2023/07/08 01:02:48;;;;;;;75.47;12.33;;;23.00;1.00;;;;;;5099650;28;20399;-82
2023/07/08 01:05:18;;;;;;;74.57;13.07;;;23.00;1.00;;;;;;5099854;28;20408;-81
2023/07/08 01:07:50;;;;;;;75.97;13.27;;;22.90;1.00;;;;;;5099924;28;20437;-82
2023/07/08 01:10:26;;;;;;;76.80;12.17;;;22.80;1.00;;;;;;5081115;28;21002;-82
2023/07/08 01:12:56;;;;;;;75.70;11.60;;;22.80;1.00;;;;;;5099917;28;20399;-82
2023/07/08 01:15:25;;;;;;;77.60;11.93;;;22.80;1.00;;;;;;5098850;28;20441;-81
2023/07/08 01:17:53;;;;;;;73.50;12.13;;;22.80;1.00;;;;;;5099117;28;20480;-82
2023/07/08 01:20:19;;;;;;;75.10;12.47;;;22.90;1.00;;;;;;5099021;28;20406;-82
2023/07/08 01:22:45;;;;;;;73.53;11.80;;;22.90;1.00;;;;;;5098778;28;20398;-81
2023/07/08 01:25:13;;;;;;;73.57;11.13;;;22.80;1.00;;;;;;5098804;28;20404;-82
2023/07/08 01:27:42;;;;;;;74.07;11.57;;;22.80;1.00;;;;;;5081043;28;20440;-81
2023/07/08 01:30:09;;;;;;;74.50;11.40;;;22.80;1.00;;;;;;5099381;28;20488;-82
2023/07/08 01:32:39;;;;;;;78.40;11.63;;;22.80;1.00;;;;;;5081166;28;20449;-81
2023/07/08 01:35:06;;;;;;;74.70;11.00;;;22.80;1.00;;;;;;5080952;28;20448;-82
2023/07/08 01:37:37;;;;;;;73.90;12.90;;;22.70;1.00;;;;;;5080147;28;20444;-81
2023/07/08 01:40:21;;;;;;;74.90;11.90;;;22.50;1.00;;;;;;5098901;28;20401;-82
2023/07/08 01:42:47;;;;;;;72.27;10.80;;;22.30;1.00;;;;;;5098835;28;20403;-81
2023/07/08 01:45:15;;;;;;;77.27;12.80;;;22.40;1.00;;;;;;5099233;28;20512;-81
2023/07/08 01:47:42;;;;;;;76.07;13.10;;;22.40;1.00;;;;;;5098697;28;20425;-82
2023/07/08 01:50:10;;;;;;;75.17;13.17;;;22.40;1.00;;;;;;5098385;28;20409;-81
2023/07/08 01:52:36;;;;;;;75.87;11.93;;;22.40;1.00;;;;;;5097697;28;20784;-81
2023/07/08 01:55:02;;;;;;;76.73;12.73;;;22.40;1.00;;;;;;5080090;28;20819;-81
2023/07/08 01:57:28;;;;;;;76.67;12.20;;;22.40;1.00;;;;;;5080074;28;20936;-81
2023/07/08 01:59:54;;;;;;;73.70;11.90;;;22.30;1.00;;;;;;5097984;28;20439;-81
2023/07/08 02:02:19;;;;;;;77.50;11.57;;;22.20;1.00;;;;;;5098326;28;20674;-81
2023/07/08 02:04:45;;;;;;;78.30;12.40;;;22.30;1.00;;;;;;5097722;28;20202;-81
2023/07/08 02:07:11;;;;;;;74.80;11.40;;;22.10;1.00;;;;;;5079953;28;20176;-81
2023/07/08 02:09:36;;;;;;;74.50;12.30;;;22.20;1.00;;;;;;5079666;28;20182;-81
2023/07/08 02:12:02;;;;;;;74.57;11.87;;;22.10;1.00;;;;;;5078987;28;20221;-81
2023/07/08 02:14:28;;;;;;;75.57;11.80;;;22.20;1.00;;;;;;5097349;28;20535;-82
2023/07/08 02:16:53;;;;;;;73.63;10.57;;;22.20;1.00;;;;;;5097779;28;20170;-81
2023/07/08 02:19:21;;;;;;;76.60;12.67;;;22.20;1.00;;;;;;5097416;28;20187;-81
2023/07/08 02:21:47;;;;;;;74.27;12.17;;;22.30;1.00;;;;;;5097717;28;20167;-81
2023/07/08 02:24:16;;;;;;;74.07;11.53;;;22.30;1.00;;;;;;5097016;28;20397;-81
2023/07/08 02:26:42;;;;;;;74.57;11.50;;;22.40;1.00;;;;;;5079370;28;20593;-81
2023/07/08 02:29:08;;;;;;;78.73;11.97;;;22.30;1.00;;;;;;5098424;28;20417;-81
2023/07/08 02:31:33;;;;;;;74.33;10.80;;;22.20;1.00;;;;;;5097570;28;20176;-81
2023/07/08 02:34:01;;;;;;;72.17;9.97;;;22.10;1.00;;;;;;5097807;28;20215;-82
2023/07/08 02:36:27;;;;;;;74.20;10.83;;;22.10;1.00;;;;;;5080754;28;20198;-81
2023/07/08 02:38:52;;;;;;;73.47;9.67;;;22.00;1.00;;;;;;5084116;28;20421;-81
2023/07/08 02:41:18;;;;;;;76.00;11.00;;;22.00;1.00;;;;;;5102315;28;20611;-81
2023/07/08 02:43:44;;;;;;;74.57;11.63;;;21.90;1.00;;;;;;5102107;28;20233;-81
2023/07/08 02:46:10;;;;;;;74.67;10.63;;;21.90;1.00;;;;;;5101510;28;20424;-81
2023/07/08 02:48:35;;;;;;;73.47;10.13;;;21.90;1.00;;;;;;5101729;28;20188;-81
2023/07/08 02:51:02;;;;;;;73.07;11.07;;;21.90;1.00;;;;;;5102066;28;20197;-81
2023/07/08 02:53:28;;;;;;;73.10;9.57;;;22.00;1.00;;;;;;5101995;28;20174;-81
2023/07/08 02:55:54;;;;;;;71.40;9.17;;;22.00;1.00;;;;;;5102071;28;20475;-81
2023/07/08 02:58:20;;;;;;;75.83;10.40;;;22.10;1.00;;;;;;5083136;28;20457;-81
2023/07/08 03:00:50;;;;;;;73.47;9.50;;;22.00;1.00;;;;;;5083593;28;20684;-81
2023/07/08 03:03:16;;;;;;;74.83;11.20;;;22.00;1.00;;;;;;5101843;28;20270;-82
2023/07/08 03:05:42;;;;;;;71.80;9.03;;;22.10;1.00;;;;;;5083056;28;20439;-81
2023/07/08 03:08:08;;;;;;;73.67;9.67;;;22.10;1.00;;;;;;5101379;28;20431;-81
2023/07/08 03:10:33;;;;;;;73.07;10.00;;;22.10;1.00;;;;;;5179246;22;20218;-86
2023/07/08 03:12:59;;;;;;;71.70;8.03;;;22.00;1.00;;;;;;5120905;28;20159;-86
2023/07/08 03:15:25;;;;;;;72.70;8.60;;;22.00;1.00;;;;;;5120913;28;20194;-83
2023/07/08 03:17:50;;;;;;;73.30;8.33;;;22.00;1.00;;;;;;5097092;28;20195;-83
2023/07/08 03:20:17;;;;;;;73.17;9.33;;;22.10;1.00;;;;;;5101629;28;20180;-83
2023/07/08 03:22:42;;;;;;;72.70;8.13;;;22.00;1.00;;;;;;5081542;28;20167;-83
2023/07/08 03:25:09;;;;;;;72.60;9.23;;;21.90;1.00;;;;;;5100240;28;20402;-83
2023/07/08 03:27:34;;;;;;;74.60;9.87;;;22.00;1.00;;;;;;5307816;22;20202;-83
2023/07/08 03:30:00;;;;;;;73.27;8.50;;;22.00;1.00;;;;;;5543915;22;20522;-83
2023/07/08 03:32:26;;;;;;;73.63;8.67;;;21.90;1.00;;;;;;5247128;22;20245;-83
2023/07/08 03:34:51;;;;;;;74.20;8.33;;;21.90;1.00;;;;;;5120499;28;20182;-83
2023/07/08 03:37:17;;;;;;;71.70;8.07;;;22.00;1.00;;;;;;5118810;28;20641;-83
2023/07/08 03:39:43;;;;;;;71.10;7.87;;;21.90;1.00;;;;;;5100141;28;20170;-83
2023/07/08 03:42:09;;;;;;;70.37;7.40;;;21.90;1.00;;;;;;5099967;28;20175;-83
2023/07/08 03:44:35;;;;;;;73.90;10.10;;;21.90;1.00;;;;;;5100532;28;20167;-83
2023/07/08 03:47:00;;;;;;;75.70;8.03;;;21.90;1.00;;;;;;5100064;28;20472;-83
2023/07/08 03:49:26;;;;;;;70.93;7.50;;;21.80;1.00;;;;;;5082601;28;20191;-83
2023/07/08 03:51:53;;;;;;;71.53;8.00;;;21.80;1.00;;;;;;5099858;28;20164;-83
2023/07/08 03:54:20;;;;;;;73.60;8.30;;;21.70;1.00;;;;;;5102287;28;20201;-83
2023/07/08 03:56:46;;;;;;;73.50;8.37;;;21.80;1.00;;;;;;5103374;28;20421;-83
2023/07/08 03:59:12;;;;;;;71.57;7.60;;;21.80;1.00;;;;;;5103535;28;20947;-84
2023/07/08 04:01:41;;;;;;;72.67;7.80;;;21.80;1.00;;;;;;5103807;28;20203;-83
2023/07/08 04:04:08;;;;;;;70.90;7.83;;;21.70;1.00;;;;;;5103200;28;20160;-83
2023/07/08 04:06:34;;;;;;;70.30;7.60;;;21.70;1.00;;;;;;5103179;28;20425;-86
2023/07/08 04:09:00;;;;;;;70.90;8.50;;;21.60;1.00;;;;;;5103958;28;20447;-86
2023/07/08 04:11:26;;;;;;;72.43;8.37;;;21.50;1.00;;;;;;5103187;28;20666;-86
2023/07/08 04:13:52;;;;;;;72.20;8.90;;;21.50;1.00;;;;;;5103242;28;20414;-86
2023/07/08 04:16:31;;;;;;;72.70;8.10;;;21.50;1.00;;;;;;5102637;28;20409;-86
2023/07/08 04:18:57;;;;;;;71.90;7.33;;;21.60;1.00;;;;;;5103231;28;20428;-87
2023/07/08 04:21:25;;;;;;;72.77;8.20;;;21.70;1.00;;;;;;5085513;28;20405;-86
2023/07/08 04:23:51;;;;;;;73.40;7.93;;;21.70;1.00;;;;;;5104080;28;20798;-86
2023/07/08 04:26:18;;;;;;;71.07;8.07;;;21.80;1.00;;;;;;5103539;28;20480;-84
2023/07/08 04:28:44;;;;;;;71.17;7.30;;;21.80;1.00;;;;;;5102952;28;20172;-84
2023/07/08 04:31:10;;;;;;;74.17;8.90;;;21.70;1.00;;;;;;5104579;28;20492;-84
2023/07/08 04:33:35;;;;;;;70.70;7.60;;;21.70;1.00;;;;;;5103788;28;20198;-84
2023/07/08 04:36:01;;;;;;;71.80;8.73;;;21.60;1.00;;;;;;5103418;28;20170;-84
2023/07/08 04:38:27;;;;;;;73.13;7.80;;;21.40;1.00;;;;;;5105426;28;20175;-84
2023/07/08 04:40:53;;;;;;;71.17;7.53;;;21.40;1.00;;;;;;5102222;28;20399;-84
2023/07/08 04:43:20;;;;;;;73.37;8.63;;;21.50;1.00;;;;;;5101751;28;20166;-83
2023/07/08 04:45:50;;;;;;;71.47;8.50;;;21.70;1.00;;;;;;5101585;28;20401;-84
2023/07/08 04:48:18;;;;;;;71.07;7.17;;;21.80;1.00;;;;;;5100446;28;20460;-83
2023/07/08 04:50:45;;;;;;;72.70;8.43;;;21.90;1.00;;;;;;5101039;28;20413;-84
2023/07/08 04:53:12;;;;;;;75.50;8.37;;;22.20;1.00;;;;;;5102794;28;20409;-84
2023/07/08 04:55:49;;;;;;;71.27;9.17;;;22.50;1.00;;;;;;5101775;28;20525;-84
2023/07/08 04:58:15;;;;;;;72.60;7.73;;;22.90;1.00;;;;;;5104173;28;20409;-84
2023/07/08 05:00:41;;;;;;;72.50;8.20;;;23.10;1.00;;;;;;5104711;28;20406;-84
2023/07/08 05:03:12;;;;;;;70.17;9.13;;;23.40;1.00;;;;;;5102376;28;20183;-84
2023/07/08 05:05:38;;;;;;;73.60;9.37;;;23.40;1.00;;;;;;5101779;28;20188;-84
2023/07/08 05:08:04;;;;;;;76.60;10.03;;;23.50;1.00;;;;;;5100925;28;20418;-83
2023/07/08 05:10:33;;;;;;;74.80;10.67;;;23.50;1.00;;;;;;5100589;28;20170;-84
2023/07/08 05:13:00;;;;;;;71.27;9.07;;;23.30;1.00;;;;;;5099820;28;20834;-84
2023/07/08 05:15:26;;;;;;;71.27;9.67;;;23.00;1.00;;;;;;5099517;28;20433;-83
2023/07/08 05:17:51;;;;;;;72.70;10.20;;;22.80;1.00;;;;;;5098538;28;20415;-83
2023/07/08 05:20:18;;;;;;;72.83;9.47;;;22.70;1.00;;;;;;5098744;28;20161;-83
2023/07/08 05:22:44;;;;;;;69.77;8.60;;;22.70;1.00;;;;;;5100260;28;20155;-83
2023/07/08 05:25:11;;;;;;;71.70;8.77;;;22.50;1.00;;;;;;5102281;28;20401;-84
2023/07/08 05:27:37;;;;;;;74.07;9.13;;;22.50;1.00;;;;;;5103947;28;20421;-84
2023/07/08 05:30:05;;;;;;;74.13;9.50;;;22.50;1.00;;;;;;5103149;28;20406;-84
2023/07/08 05:32:31;;;;;;;70.57;9.20;;;22.40;1.00;;;;;;5103343;28;20194;-84
2023/07/08 05:34:57;;;;;;;72.47;9.03;;;22.40;1.00;;;;;;5103498;28;20516;-84
2023/07/08 05:37:25;;;;;;;79.13;8.90;;;22.50;1.00;;;;;;5086156;28;20697;-83
2023/07/08 05:39:52;;;;;;;71.87;9.13;;;22.60;1.00;;;;;;5103317;28;20404;-84
2023/07/08 05:42:19;;;;;;;69.87;8.87;;;22.60;1.00;;;;;;5103997;28;20419;-84
2023/07/08 05:44:45;;;;;;;69.77;8.57;;;22.60;1.00;;;;;;5103699;28;20436;-84
2023/07/08 05:47:10;;;;;;;70.77;8.27;;;22.50;1.00;;;;;;5103122;28;20815;-84
2023/07/08 05:49:36;;;;;;;71.97;10.13;;;22.50;1.00;;;;;;5102863;28;20163;-84
2023/07/08 05:52:08;;;;;;;71.10;8.33;;;22.60;1.00;;;;;;5102930;28;20170;-84
2023/07/08 05:54:34;;;;;;;82.33;9.47;;;22.50;1.00;;;;;;5085400;28;20215;-84
2023/07/08 05:56:59;;;;;;;71.50;10.03;;;22.60;1.00;;;;;;5084996;28;20413;-83
2023/07/08 05:59:25;;;;;;;71.00;9.20;;;22.60;1.00;;;;;;5103547;28;20188;-84
2023/07/08 06:01:50;;;;;;;71.40;9.23;;;22.70;1.00;;;;;;5105221;28;20167;-85
2023/07/08 06:04:16;;;;;;;70.90;8.00;;;22.60;1.00;;;;;;5104774;28;20203;-86
2023/07/08 06:06:42;;;;;;;73.17;9.23;;;22.60;1.00;;;;;;5105776;28;20190;-83
2023/07/08 06:09:07;;;;;;;72.07;10.17;;;22.70;1.00;;;;;;5104643;28;20187;-83
2023/07/08 06:11:33;;;;;;;71.87;9.97;;;22.70;1.00;;;;;;5087680;28;20212;-83
2023/07/08 06:13:59;;;;;;;70.53;8.37;;;22.70;1.00;;;;;;5104685;28;20188;-83
2023/07/08 06:16:24;;;;;;;75.70;10.20;;;22.90;1.00;;;;;;5105693;28;20171;-84
2023/07/08 06:18:50;;;;;;;71.97;10.13;;;23.00;1.00;;;;;;5087097;28;20179;-85
2023/07/08 06:21:16;;;;;;;72.20;8.73;;;23.10;1.00;;;;;;5104777;28;20518;-85
2023/07/08 06:23:41;;;;;;;73.83;11.10;;;23.20;1.00;;;;;;5106003;28;20156;-85
2023/07/08 06:26:07;;;;;;;71.77;9.07;;;23.20;1.00;;;;;;5068226;28;20237;-83
2023/07/08 06:28:33;;;;;;;73.00;9.53;;;23.30;1.00;;;;;;5086919;28;20191;-85
2023/07/08 06:30:58;;;;;;;70.97;9.87;;;23.40;1.00;;;;;;5103435;28;20575;-85
2023/07/08 06:33:24;;;;;;;70.60;9.13;;;23.40;1.00;;;;;;5104497;28;20147;-85
2023/07/08 06:35:50;;;;;;;72.67;9.10;;;23.40;1.00;;;;;;5104407;28;20190;-82
2023/07/08 06:38:15;;;;;;;72.07;9.90;;;23.50;1.00;;;;;;5103389;28;20244;-82
2023/07/08 06:40:41;;;;;;;76.87;11.07;;;23.80;1.00;;;;;;5406188;22;20256;-84
2023/07/08 06:45:34;;;;;;;75.87;11.27;;;24.10;1.00;;;;;;5122151;28;20202;-85
2023/07/08 06:48:00;;;;;;;73.30;12.30;;;24.30;1.00;;;;;;5116471;28;20469;-85
2023/07/08 06:50:26;;;;;;;73.97;11.97;;;24.40;1.00;;;;;;5086201;28;20164;-85
2023/07/08 06:52:51;;;;;;;74.27;13.07;;;24.50;1.00;;;;;;5103604;28;20165;-84
2023/07/08 06:55:17;;;;;;;76.27;12.83;;;24.60;1.00;;;;;;5103360;28;20591;-85
2023/07/08 06:57:43;;;;;;;74.43;13.60;;;24.80;1.00;;;;;;5107140;28;20644;-85
2023/07/08 07:00:10;;;;;;;74.80;12.60;;;24.70;1.00;;;;;;5108437;28;20299;-85
2023/07/08 07:02:36;;;;;;;74.77;12.53;;;24.60;1.00;;;;;;5106863;28;20197;-85
2023/07/08 07:05:03;;;;;;;76.10;13.20;;;24.60;1.00;;;;;;5107435;28;20429;-85
2023/07/08 07:07:30;;;;;;;76.60;12.97;;;24.70;1.00;;;;;;5107569;28;20179;-85
2023/07/08 07:09:56;;;;;;;74.20;13.50;;;24.90;1.00;;;;;;5109859;28;20835;-85
2023/07/08 07:12:24;;;;;;;73.27;14.10;;;25.00;1.00;;;;;;5112241;28;20406;-85
2023/07/08 07:14:52;;;;;;;74.43;13.97;;;25.00;1.00;;;;;;5111050;28;20450;-84
2023/07/08 07:17:19;;;;;;;78.80;14.00;;;25.10;1.00;;;;;;5114341;28;20409;-84
2023/07/08 07:19:44;;;;;;;73.80;12.87;;;25.00;1.00;;;;;;5096107;28;20477;-85
2023/07/08 07:22:10;;;;;;;73.30;12.37;;;24.80;1.00;;;;;;5111884;28;20404;-85
2023/07/08 07:24:36;;;;;;;77.47;14.77;;;24.80;1.00;;;;;;5113484;28;20171;-84
2023/07/08 07:27:01;;;;;;;73.27;10.83;;;24.80;1.00;;;;;;5111037;28;20198;-84
2023/07/08 07:29:27;;;;;;;74.27;12.80;;;24.90;1.00;;;;;;5113682;28;20186;-85
2023/07/08 07:31:54;;;;;;;78.27;14.57;;;25.00;1.00;;;;;;5113854;28;20168;-83
2023/07/08 07:34:22;;;;;;;76.03;12.80;;;25.00;1.00;;;;;;5112434;28;20331;-82
2023/07/08 07:36:48;;;;;;;78.57;12.47;;;25.10;1.00;;;;;;5114762;28;20409;-82
2023/07/08 07:39:20;;;;;;;73.90;13.03;;;25.20;1.00;;;;;;5114823;28;20784;-82
2023/07/08 07:41:46;;;;;;;73.60;12.37;;;25.20;1.00;;;;;;5111071;28;20155;-82
2023/07/08 07:44:11;;;;;;;74.97;14.40;;;25.00;1.00;;;;;;5084127;28;20432;-81
2023/07/08 07:46:37;;;;;;;72.20;13.50;;;25.00;1.00;;;;;;5083065;28;20802;-82
2023/07/08 07:49:03;;;;;;;76.60;13.50;;;25.00;1.00;;;;;;5100939;28;20543;-82
2023/07/08 07:51:28;;;;;;;75.07;13.20;;;25.10;1.00;;;;;;5102774;28;20211;-82
2023/07/08 07:53:54;;;;;;;73.37;12.90;;;25.10;1.00;;;;;;5100636;28;20173;-82
2023/07/08 07:56:20;;;;;;;73.07;12.67;;;25.00;1.00;;;;;;5102469;28;20213;-81
2023/07/08 07:58:45;;;;;;;73.83;14.13;;;24.90;1.00;;;;;;5103907;28;20553;-82
2023/07/08 08:01:13;;;;;;;79.60;14.30;;;25.00;1.00;;;;;;5103210;28;20638;-81
2023/07/08 08:03:39;;;;;;;74.47;14.40;;;25.00;1.00;;;;;;5102315;28;20170;-81
2023/07/08 08:06:04;;;;;;;73.87;13.70;;;25.20;1.00;;;;;;5085015;28;20492;-82
2023/07/08 08:08:30;;;;;;;82.87;13.77;;;25.40;1.00;;;;;;5101503;28;20183;-82
2023/07/08 08:10:56;;;;;;;78.07;13.60;;;25.50;1.00;;;;;;5084323;28;20187;-82
2023/07/08 08:13:22;;;;;;;76.00;14.20;;;25.50;1.00;;;;;;5105058;28;20405;-82
2023/07/08 08:15:48;;;;;;;75.20;14.50;;;25.40;1.00;;;;;;5084307;28;20531;-82
2023/07/08 08:18:14;;;;;;;73.07;13.80;;;25.40;1.00;;;;;;5087214;28;20191;-82
2023/07/08 08:20:41;;;;;;;73.93;13.10;;;25.30;1.00;;;;;;5103381;28;20157;-82
2023/07/08 08:23:06;;;;;;;72.80;11.50;;;25.40;1.00;;;;;;5086575;28;20423;-81
2023/07/08 08:25:32;;;;;;;74.07;14.13;;;25.60;1.00;;;;;;5103183;28;20404;-82
2023/07/08 08:27:58;;;;;;;76.60;13.30;;;25.80;1.00;;;;;;5105852;28;20210;-82
2023/07/08 08:30:24;;;;;;;75.50;13.13;;;26.10;1.00;;;;;;5113988;28;20405;-83
2023/07/08 08:32:49;;;;;;;74.00;10.87;;;26.30;1.00;;;;;;5113160;28;20163;-82
2023/07/08 08:35:15;;;;;;;76.17;11.97;;;26.40;1.00;;;;;;5109805;28;20253;-82
2023/07/08 08:37:41;;;;;;;77.27;11.87;;;26.60;1.00;;;;;;5112240;28;20232;-82
2023/07/08 08:40:15;;;;;;;74.30;9.83;;;26.60;1.00;;;;;;5112080;28;20156;-82
2023/07/08 08:42:46;;;;;;;73.07;10.53;;;26.70;1.00;;;;;;5112121;28;20150;-83
2023/07/08 08:45:17;;;;;;;73.00;9.63;;;26.90;1.00;;;;;;5111908;28;20404;-82
2023/07/08 08:47:45;;;;;;;72.80;9.47;;;27.00;1.00;;;;;;5108764;28;20524;-83
2023/07/08 08:50:43;;;;;;;73.07;8.03;;;27.20;1.00;;;;;;5105192;28;20404;-82
2023/07/08 08:53:12;;;;;;;74.00;7.07;;;27.40;1.00;;;;;;5106744;28;20457;-83
2023/07/08 08:55:38;;;;;;;72.27;7.73;;;27.40;1.00;;;;;;5106159;28;20533;-83
2023/07/08 08:58:30;;;;;;;73.07;7.10;;;27.60;1.00;;;;;;5105647;28;20422;-82
2023/07/08 09:01:03;;;;;;;72.10;6.90;;;27.60;1.00;;;;;;5087799;28;20394;-80
2023/07/08 09:03:51;;;;;;;71.07;6.83;;;27.60;1.00;;;;;;5107734;28;20392;-83
2023/07/08 09:06:28;;;;;;;71.10;5.90;;;27.70;1.00;;;;;;5102961;28;20461;-82
2023/07/08 09:08:57;;;;;;;72.10;7.10;;;27.90;1.00;;;;;;5100882;28;20417;-82
2023/07/08 09:11:41;;;;;;;72.20;6.20;;;28.00;1.00;;;;;;5273732;22;20519;-79
2023/07/08 09:14:33;;;;;;;74.37;6.47;;;28.10;1.00;;;;;;5094896;28;20436;-79
2023/07/08 09:17:13;;;;;;;71.73;6.37;;;28.30;1.00;;;;;;5095352;28;20381;-78
2023/07/08 09:20:08;;;;;;;72.47;6.70;;;28.30;1.00;;;;;;5075000;28;20410;-78
2023/07/08 09:22:49;;;;;;;71.53;6.17;;;28.50;1.00;;;;;;5074342;28;20762;-78
2023/07/08 09:25:15;;;;;;;76.93;6.90;;;28.70;1.00;;;;;;5075280;28;20440;-78
2023/07/08 09:27:41;;;;;;;70.90;5.73;;;28.80;1.00;;;;;;5074402;28;20422;-78
2023/07/08 09:30:15;;;;;;;72.10;6.50;;;29.00;1.00;;;;;;5075051;28;20564;-79
2023/07/08 09:32:40;;;;;;;70.80;5.97;;;29.10;1.00;;;;;;5075086;28;20915;-79
2023/07/08 09:35:08;;;;;;;73.60;6.90;;;29.10;1.00;;;;;;5056045;28;20446;-79
2023/07/08 09:37:35;;;;;;;79.63;5.97;;;29.20;1.00;;;;;;5074187;28;20584;-78
2023/07/08 09:40:14;;;;;;;73.50;6.80;;;29.50;1.00;;;;;;5074494;28;20532;-79
2023/07/08 09:42:42;;;;;;;73.47;5.90;;;29.60;1.00;;;;;;5056502;28;20407;-78
2023/07/08 09:45:16;;;;;;;72.33;6.83;;;29.80;1.00;;;;;;5073981;28;20414;-78
2023/07/08 09:47:45;;;;;;;72.00;5.87;;;29.90;1.00;;;;;;5074311;28;20426;-78
2023/07/08 09:50:25;;;;;;;70.60;5.30;;;29.90;1.00;;;;;;5074086;28;20413;-78
2023/07/08 09:52:56;;;;;;;77.00;6.43;;;30.00;1.00;;;;;;5074110;28;20413;-78
2023/07/08 09:55:23;;;;;;;71.17;5.50;;;30.20;1.00;;;;;;5056275;28;20438;-78
2023/07/08 09:57:52;;;;;;;71.40;5.77;;;30.20;1.00;;;;;;5074247;28;20450;-78
2023/07/08 10:00:27;;;;;;;74.80;6.83;;;30.40;1.00;;;;;;5074534;28;20398;-79
2023/07/08 10:02:58;;;;;;;72.93;6.10;;;30.60;1.00;;;;;;5074815;28;20382;-78
2023/07/08 10:05:39;;;;;;;71.10;7.20;;;30.60;1.00;;;;;;5056528;28;20442;-78
2023/07/08 10:08:17;;;;;;;71.57;6.67;;;30.70;1.00;;;;;;5074569;28;20422;-79
2023/07/08 10:10:45;;;;;;;72.50;7.17;;;30.70;1.00;;;;;;5074080;28;20453;-78
2023/07/08 10:13:37;;;;;;;70.80;7.53;;;31.00;1.00;;;;;;5074910;28;20382;-78
2023/07/08 10:16:29;;;;;;;74.90;7.70;;;31.10;1.00;;;;;;5075591;28;20967;-78
2023/07/08 10:18:55;;;;;;;72.27;8.17;;;31.10;1.00;;;;;;5056473;28;20506;-79
2023/07/08 10:21:47;;;;;;;71.67;8.20;;;31.30;1.00;;;;;;5074832;28;20468;-78
2023/07/08 10:24:37;;;;;;;73.80;8.80;;;31.50;1.00;;;;;;5075109;28;20397;-79
2023/07/08 10:27:26;;;;;;;76.80;10.30;;;31.70;1.00;;;;;;5056455;28;20399;-78
2023/07/08 10:30:17;;;;;;;73.30;9.67;;;31.70;1.00;;;;;;5056825;28;20832;-79
2023/07/08 10:32:54;;;;;;;72.93;10.27;;;31.70;1.00;;;;;;5063945;28;20414;-78
2023/07/08 10:35:35;;;;;;;75.93;11.60;;;31.80;1.00;;;;;;5074472;28;20463;-79
2023/07/08 10:38:15;;;;;;;76.00;10.73;;;32.10;1.00;;;;;;5056710;28;20434;-78
2023/07/08 10:40:58;;;;;;;76.87;10.67;;;32.30;1.00;;;;;;5075078;28;20391;-79
2023/07/08 10:43:42;;;;;;;71.93;10.33;;;32.30;1.00;;;;;;5074824;28;20398;-79
2023/07/08 10:46:43;;;;;;;75.00;9.40;;;32.60;1.00;;;;;;5056980;28;20414;-79
2023/07/08 10:49:26;;;;;;;74.07;8.53;;;32.70;1.00;;;;;;5060962;28;20783;-79
2023/07/08 10:52:07;;;;;;;71.67;7.30;;;33.10;1.00;;;;;;5074919;28;20414;-79
2023/07/08 10:54:48;;;;;;;71.47;6.63;;;33.20;1.00;;;;;;5074965;28;20952;-79
2023/07/08 10:57:20;;;;;;;72.10;7.37;;;33.10;1.00;;;;;;5075691;28;20719;-79
2023/07/08 10:59:55;;;;;;;75.07;5.57;;;33.00;1.00;;;;;;5060500;28;20432;-79
2023/07/08 11:02:36;;;;;;;72.27;5.70;;;33.20;1.00;;;;;;5078305;28;20900;-79
2023/07/08 11:05:05;;;;;;;74.63;5.60;;;33.30;1.00;;;;;;5078407;28;20777;-78
2023/07/08 11:07:34;;;;;;;74.57;5.40;;;33.40;1.00;;;;;;5078364;28;20422;-78
2023/07/08 11:10:21;;;;;;;73.10;5.87;;;33.60;1.00;;;;;;5060792;28;20818;-78
2023/07/08 11:13:12;;;;;;;71.90;5.87;;;33.70;1.00;;;;;;5078927;28;20489;-79
2023/07/08 11:15:45;;;;;;;70.80;4.97;;;33.80;1.00;;;;;;5078450;28;20944;-79
2023/07/08 11:18:23;;;;;;;70.67;4.90;;;33.90;1.00;;;;;;5079170;28;20422;-79
2023/07/08 11:20:57;;;;;;;71.20;5.00;;;33.90;1.00;;;;;;5079440;28;20390;-80
2023/07/08 11:23:38;;;;;;;74.50;4.87;;;33.70;1.00;;;;;;5061370;28;20398;-80
2023/07/08 11:26:17;;;;;;;71.50;4.83;;;33.70;1.00;;;;;;5061464;28;20413;-79
2023/07/08 11:28:48;;;;;;;71.73;4.70;;;33.70;1.00;;;;;;5078800;28;20422;-79
2023/07/08 11:31:14;;;;;;;70.63;4.77;;;33.60;1.00;;;;;;5061151;28;20463;-80
2023/07/08 11:33:42;;;;;;;70.63;5.33;;;33.70;1.00;;;;;;5077911;28;20438;-79
2023/07/08 11:36:09;;;;;;;71.40;4.77;;;33.70;1.00;;;;;;5079178;28;20456;-78
2023/07/08 11:38:35;;;;;;;71.40;5.30;;;33.90;1.00;;;;;;5078828;28;20524;-80
2023/07/08 11:41:10;;;;;;;70.10;5.10;;;34.20;1.00;;;;;;5079117;28;20402;-79
2023/07/08 11:43:56;;;;;;;72.97;4.70;;;34.30;1.00;;;;;;5078878;28;20893;-80
2023/07/08 11:46:34;;;;;;;71.73;4.73;;;34.10;1.00;;;;;;5078785;28;20848;-80
2023/07/08 11:49:10;;;;;;;76.27;5.50;;;33.90;1.00;;;;;;5078249;28;20422;-79
2023/07/08 11:51:41;;;;;;;74.17;5.27;;;34.30;1.00;;;;;;5061159;28;20452;-79
2023/07/08 11:54:12;;;;;;;74.43;5.70;;;34.40;1.00;;;;;;5078385;28;20452;-79
2023/07/08 11:57:16;;;;;;;72.13;5.27;;;34.60;1.00;;;;;;5079238;28;20375;-79
2023/07/08 11:59:41;;;;;;;74.50;5.47;;;34.70;1.00;;;;;;5065665;28;20425;-79
2023/07/08 12:02:19;;;;;;;71.23;5.10;;;34.50;1.00;;;;;;5078585;28;20402;-80
2023/07/08 12:05:00;;;;;;;71.70;5.07;;;34.60;1.00;;;;;;5078772;28;20172;-79
2023/07/08 12:07:44;;;;;;;72.17;5.13;;;34.70;1.00;;;;;;5078661;28;20392;-80
2023/07/08 12:10:22;;;;;;;72.43;5.60;;;34.60;1.00;;;;;;5078780;28;20389;-79
2023/07/08 12:12:48;;;;;;;73.20;4.80;;;34.60;1.00;;;;;;5060056;28;20429;-79
2023/07/08 12:15:32;;;;;;;71.80;4.80;;;34.80;1.00;;;;;;5078008;28;20524;-79
2023/07/08 12:18:06;;;;;;;71.50;5.47;;;35.00;1.00;;;;;;5078469;28;20428;-79
2023/07/08 12:20:38;;;;;;;72.10;4.80;;;35.10;1.00;;;;;;5060822;28;20503;-79
2023/07/08 12:23:13;;;;;;;72.50;5.80;;;34.90;1.00;;;;;;5078760;28;20441;-79
2023/07/08 12:25:39;;;;;;;80.37;5.57;;;34.90;1.00;;;;;;5060307;28;20406;-79
2023/07/08 12:28:05;;;;;;;73.60;5.00;;;34.70;1.00;;;;;;5060367;28;20430;-79
2023/07/08 12:30:32;;;;;;;73.10;4.70;;;34.90;1.00;;;;;;5077648;28;20171;-79
2023/07/08 12:33:01;;;;;;;71.77;5.10;;;35.00;1.00;;;;;;5059404;28;20513;-79
2023/07/08 12:35:35;;;;;;;73.07;5.43;;;35.20;1.00;;;;;;5078601;28;20446;-79
2023/07/08 12:38:27;;;;;;;72.50;5.10;;;35.30;1.00;;;;;;5060424;28;20437;-79
2023/07/08 12:40:53;;;;;;;72.43;5.27;;;35.40;1.00;;;;;;5059978;28;20993;-80
2023/07/08 12:43:18;;;;;;;71.53;5.30;;;35.40;1.00;;;;;;5078123;28;20422;-80
2023/07/08 12:45:44;;;;;;;73.40;5.23;;;35.50;1.00;;;;;;5077448;28;20177;-79
2023/07/08 12:48:10;;;;;;;72.30;4.80;;;35.30;1.00;;;;;;5077563;28;20203;-79
2023/07/08 12:50:41;;;;;;;71.50;5.90;;;35.30;1.00;;;;;;5059345;28;20203;-79
2023/07/08 12:53:10;;;;;;;69.07;5.13;;;35.30;1.00;;;;;;5059888;28;20168;-79
2023/07/08 12:55:41;;;;;;;73.77;5.50;;;35.40;1.00;;;;;;5058957;28;20450;-79
2023/07/08 12:58:21;;;;;;;71.80;5.70;;;35.30;1.00;;;;;;5076891;28;20422;-80